createdAt,value
2018-03-23T00:02:38.097Z,11.04
2018-03-23T00:08:28.946Z,13.4
2018-03-23T00:14:19.787Z,13.1
2018-03-23T00:20:10.661Z,15.08
2018-03-23T00:26:01.502Z,12.86
2018-03-23T00:31:52.356Z,19.75
2018-03-23T00:37:43.187Z,12.27
2018-03-23T00:43:34.028Z,9.3
2018-03-23T00:49:24.881Z,13.85
2018-03-23T00:55:15.725Z,11.9
2018-03-23T01:01:06.564Z,12.44
2018-03-23T01:06:57.460Z,15.16
2018-03-23T01:12:48.272Z,15.36
2018-03-23T01:18:39.158Z,13.32
2018-03-23T01:24:29.985Z,14.96
2018-03-23T01:30:20.821Z,13.54
2018-03-23T01:36:11.666Z,13.36
2018-03-23T01:42:02.524Z,10.66
2018-03-23T01:47:53.360Z,10.94
2018-03-23T01:53:44.299Z,16.81
2018-03-23T01:59:35.119Z,14.82
2018-03-23T02:05:25.899Z,12.45
2018-03-23T02:11:16.805Z,12.01
2018-03-23T02:17:07.665Z,13.35
2018-03-23T02:22:58.502Z,14.71
2018-03-23T02:28:49.364Z,12
2018-03-23T02:34:40.157Z,12.18
2018-03-23T02:40:31.068Z,13.24
2018-03-23T02:46:21.880Z,16.12
2018-03-23T02:52:12.744Z,13.61
2018-03-23T02:58:03.568Z,11.73
2018-03-23T03:03:54.406Z,11.61
2018-03-23T03:09:45.271Z,13.55
2018-03-23T03:15:36.088Z,11.61
2018-03-23T03:21:26.946Z,11.99
2018-03-23T03:27:17.802Z,12.58
2018-03-23T03:33:08.600Z,11.8
2018-03-23T03:38:59.498Z,8.44
2018-03-23T03:44:50.330Z,10.68
2018-03-23T03:50:41.189Z,12.02
2018-03-23T03:56:32.007Z,9.35
2018-03-23T04:02:22.821Z,9.6
2018-03-23T04:08:13.771Z,8.14
2018-03-23T04:14:04.510Z,11.52
2018-03-23T04:19:55.397Z,11.55
2018-03-23T04:25:46.247Z,9.63
2018-03-23T04:31:37.068Z,6.44
2018-03-23T04:37:27.922Z,7.28
2018-03-23T04:43:18.708Z,13.32
2018-03-23T04:49:09.584Z,9.65
2018-03-23T04:55:00.459Z,6.91
2018-03-23T05:00:51.287Z,8.7
2018-03-23T05:06:42.148Z,10.95
2018-03-23T05:12:32.973Z,7.72
2018-03-23T05:18:23.873Z,13.26
2018-03-23T05:24:14.692Z,11.18
2018-03-23T05:30:05.526Z,15.21
2018-03-23T05:35:56.350Z,12.15
2018-03-23T05:41:47.206Z,12.5
2018-03-23T05:47:38.040Z,11.09
2018-03-23T05:53:28.893Z,10.52
2018-03-23T05:59:19.772Z,14.16
2018-03-23T06:05:10.610Z,13.2
2018-03-23T06:11:01.449Z,13.96
2018-03-23T06:16:52.266Z,17.41
2018-03-23T06:22:43.111Z,14.69
2018-03-23T06:28:33.911Z,15.41
2018-03-23T06:34:24.821Z,15.19
2018-03-23T06:40:15.644Z,16.02
2018-03-23T06:46:06.517Z,16.76
2018-03-23T06:51:57.303Z,17.41
2018-03-23T06:57:48.244Z,23.73
2018-03-23T07:03:39.016Z,22.04
2018-03-23T07:09:29.993Z,27.07
2018-03-23T07:15:20.846Z,22.09
2018-03-23T07:21:11.741Z,22.59
2018-03-23T07:27:02.544Z,18.01
2018-03-23T07:32:53.395Z,19.96
2018-03-23T07:38:44.231Z,16.35
2018-03-23T07:44:35.089Z,14.88
2018-03-23T07:50:25.919Z,15.04
2018-03-23T07:56:16.720Z,12
2018-03-23T08:02:07.586Z,9.29
2018-03-23T08:07:58.410Z,10.3
2018-03-23T08:13:49.285Z,6.48
2018-03-23T08:19:40.163Z,6.44
2018-03-23T08:25:30.960Z,11.52
2018-03-23T08:31:21.881Z,14.98
2018-03-23T08:37:12.722Z,21.98
2018-03-23T08:43:03.547Z,28.19
2018-03-23T08:48:54.487Z,30.57
2018-03-23T08:54:45.301Z,34.92
2018-03-23T09:00:36.092Z,30.8
2018-03-23T09:06:26.984Z,35.02
2018-03-23T09:12:17.896Z,41.25
2018-03-23T09:18:08.688Z,31.98
2018-03-23T09:23:59.657Z,39.5
2018-03-23T09:29:50.466Z,50.34
2018-03-23T09:35:41.376Z,45
2018-03-23T09:41:32.292Z,64.3
2018-03-23T09:47:23.774Z,67.19
2018-03-23T09:53:13.951Z,67.14
2018-03-23T09:59:04.791Z,66.91
2018-03-23T10:04:55.631Z,68.59
2018-03-23T10:10:46.531Z,53.08
2018-03-23T10:16:37.295Z,49.68
2018-03-23T10:22:28.225Z,32.33
2018-03-23T10:28:19.083Z,50.13
2018-03-23T10:34:10.013Z,54.6
2018-03-23T10:40:00.741Z,53.38
2018-03-23T10:45:51.619Z,44.51
2018-03-23T10:51:42.462Z,34.5
2018-03-23T10:57:33.365Z,26.77
2018-03-23T11:03:24.248Z,30.08
2018-03-23T11:09:15.087Z,34.86
2018-03-23T11:15:05.966Z,25.92
2018-03-23T11:20:56.821Z,25.59
2018-03-23T11:26:47.724Z,27.11
2018-03-23T11:32:38.638Z,37.1
2018-03-23T11:38:29.519Z,40.81
2018-03-23T11:44:20.387Z,40.3
2018-03-23T11:50:11.242Z,35.88
2018-03-23T11:56:02.091Z,42.35
2018-03-23T12:01:52.992Z,36.31
2018-03-23T12:07:43.874Z,31.55
2018-03-23T12:13:34.755Z,23.97
2018-03-23T12:19:25.685Z,20.52
2018-03-23T12:25:16.596Z,19.42
2018-03-23T12:31:07.429Z,14.23
2018-03-23T12:36:58.320Z,19.99
2018-03-23T12:42:49.252Z,17.88
2018-03-23T12:48:40.129Z,21.5
2018-03-23T12:54:31.062Z,20.65
2018-03-23T13:00:21.914Z,19.78
2018-03-23T13:06:12.849Z,19.35
2018-03-23T13:12:03.768Z,25.19
2018-03-23T13:17:54.629Z,19.4
2018-03-23T13:23:45.540Z,14.2
2018-03-23T13:29:36.445Z,20.85
2018-03-23T13:35:27.362Z,19.84
2018-03-23T13:41:18.246Z,19.53
2018-03-23T13:47:09.218Z,17.16
2018-03-23T13:53:00.421Z,12.24
2018-03-23T13:58:51.178Z,16.6
2018-03-23T14:04:41.921Z,7.84
2018-03-23T14:10:32.794Z,8.64
2018-03-23T14:16:23.748Z,11.27
2018-03-23T14:22:14.685Z,14.11
2018-03-23T14:28:05.593Z,17.49
2018-03-23T14:33:56.444Z,14.72
2018-03-23T14:39:47.367Z,26.51
2018-03-23T14:45:38.304Z,36.62
2018-03-23T14:51:29.186Z,54.96
2018-03-23T14:57:20.106Z,60.04
2018-03-23T15:03:11.003Z,67.19
2018-03-23T15:09:01.956Z,55.63
2018-03-23T15:14:52.817Z,49.69
2018-03-23T15:20:43.747Z,44.51
2018-03-23T15:26:34.628Z,52.2
2018-03-23T15:32:25.540Z,42.03
2018-03-23T15:38:16.394Z,32.92
2018-03-23T15:44:07.271Z,26.94
2018-03-23T15:49:58.202Z,22.57
2018-03-23T15:55:49.072Z,20.35
2018-03-23T16:01:40.028Z,17.03
2018-03-23T16:07:30.880Z,13.94
2018-03-23T16:13:21.785Z,13.4
2018-03-23T16:19:12.706Z,11.09
2018-03-23T16:25:03.648Z,10.24
2018-03-23T16:30:54.396Z,13.55
2018-03-23T16:36:45.296Z,13.23
2018-03-23T16:42:36.210Z,17.84
2018-03-23T16:48:27.066Z,21.56
2018-03-23T16:54:18.005Z,11.19
2018-03-23T17:00:08.828Z,16.71
2018-03-23T17:05:59.704Z,12.06
2018-03-23T17:17:41.477Z,11.02
2018-03-23T17:23:32.339Z,6.96
2018-03-23T17:29:23.245Z,8.78
2018-03-23T17:35:14.145Z,9.27
2018-03-23T17:41:04.997Z,8.68
2018-03-23T17:46:55.935Z,6.65
2018-03-23T17:52:46.851Z,10
2018-03-23T17:58:37.603Z,7.22
2018-03-23T18:04:28.486Z,8.75
2018-03-23T18:10:19.352Z,7.53
2018-03-23T18:16:10.241Z,7.1
2018-03-23T18:22:01.109Z,5.95
2018-03-23T18:27:51.969Z,9.17
2018-03-23T18:33:42.840Z,9.87
2018-03-23T18:39:33.716Z,8.37
2018-03-23T18:45:24.591Z,12.69
2018-03-23T18:51:15.444Z,13.86
2018-03-23T18:57:06.386Z,17.05
2018-03-23T19:02:57.223Z,15.48
2018-03-23T19:08:48.069Z,17.24
2018-03-23T19:14:38.943Z,13.56
2018-03-23T19:20:29.795Z,18.55
2018-03-23T19:26:20.686Z,15.43
2018-03-23T19:32:11.561Z,13.86
2018-03-23T19:38:02.426Z,11.24
2018-03-23T19:43:53.244Z,13.7
2018-03-23T19:49:44.104Z,8.09
2018-03-23T19:55:34.979Z,9.53
2018-03-23T20:01:25.844Z,10.25
2018-03-23T20:07:16.695Z,10.4
2018-03-23T20:13:07.619Z,12.89
2018-03-23T20:18:58.408Z,11.46
2018-03-23T20:24:49.308Z,14.04
2018-03-23T20:30:40.160Z,9.55
2018-03-23T20:36:31.025Z,11.61
2018-03-23T20:42:21.872Z,12.74
2018-03-23T20:48:12.757Z,14.46
2018-03-23T20:54:03.597Z,11.58
2018-03-23T20:59:54.444Z,9.89
2018-03-23T21:05:45.306Z,8.38
2018-03-23T21:11:36.147Z,9.34
2018-03-23T21:17:27.016Z,11.2
2018-03-23T21:23:17.875Z,10.63
2018-03-23T21:29:08.766Z,10.83
2018-03-23T21:34:59.600Z,14.89
2018-03-23T21:40:50.449Z,11.57
2018-03-23T21:46:41.389Z,16.34
2018-03-23T21:52:32.179Z,14.25
2018-03-23T21:58:23.096Z,13.5
2018-03-23T22:04:13.901Z,16.22
2018-03-23T22:10:04.750Z,19.41
2018-03-23T22:15:55.597Z,20.12
2018-03-23T22:21:46.436Z,23.79
2018-03-23T22:27:37.320Z,18.91
2018-03-23T22:33:28.195Z,23.02
2018-03-23T22:39:19.063Z,24.57
2018-03-23T22:45:09.889Z,24.49
2018-03-23T22:51:00.723Z,20.46
2018-03-23T22:56:51.624Z,17.14
2018-03-23T23:02:42.439Z,20.4
2018-03-23T23:08:33.335Z,20.18
2018-03-23T23:14:24.222Z,24.56
2018-03-23T23:20:15.011Z,19.58
2018-03-23T23:26:05.904Z,21.48
2018-03-23T23:31:56.773Z,20.89
2018-03-23T23:37:47.565Z,24.66
2018-03-23T23:43:38.455Z,20.51
2018-03-23T23:49:29.332Z,24.98
2018-03-23T23:55:20.137Z,18.66
